sensor_id;sensor_type;location;lat;lon;timestamp;pressure;altitude;pressure_sealevel;temperature;humidity
498;BME280;39559;48.630;9.162;2023-02-13T00:00:23;99374.34;;;-2.85;100.00
498;BME280;39559;48.630;9.162;2023-02-13T00:02:49;99373.13;;;-2.93;100.00
498;BME280;39559;48.630;9.162;2023-02-13T00:05:16;99363.63;;;-2.78;100.00
498;BME280;39559;48.630;9.162;2023-02-13T00:09:47;99362.06;;;-2.74;100.00
498;BME280;39559;48.630;9.162;2023-02-13T00:12:13;99368.94;;;-2.72;100.00
498;BME280;39559;48.630;9.162;2023-02-13T00:14:39;99367.63;;;-2.83;100.00
498;BME280;39559;48.630;9.162;2023-02-13T00:17:05;99373.41;;;-2.87;100.00
498;BME280;39559;48.630;9.162;2023-02-13T00:19:31;99366.59;;;-3.08;100.00
498;BME280;39559;48.630;9.162;2023-02-13T00:21:57;99379.16;;;-3.32;100.00
498;BME280;39559;48.630;9.162;2023-02-13T00:24:22;99377.22;;;-3.37;100.00
498;BME280;39559;48.630;9.162;2023-02-13T00:26:48;99371.91;;;-3.22;100.00
498;BME280;39559;48.630;9.162;2023-02-13T00:29:13;99364.38;;;-3.21;100.00
498;BME280;39559;48.630;9.162;2023-02-13T00:33:49;99370.31;;;-3.20;100.00
498;BME280;39559;48.630;9.162;2023-02-13T00:36:20;99370.59;;;-3.14;100.00
498;BME280;39559;48.630;9.162;2023-02-13T00:38:46;99369.44;;;-3.21;100.00
498;BME280;39559;48.630;9.162;2023-02-13T00:41:13;99370.44;;;-3.17;100.00
498;BME280;39559;48.630;9.162;2023-02-13T00:43:40;99372.91;;;-3.19;100.00
498;BME280;39559;48.630;9.162;2023-02-13T00:46:06;99374.66;;;-3.18;100.00
498;BME280;39559;48.630;9.162;2023-02-13T00:48:33;99376.28;;;-3.20;100.00
498;BME280;39559;48.630;9.162;2023-02-13T00:50:59;99378.97;;;-3.36;100.00
498;BME280;39559;48.630;9.162;2023-02-13T00:53:25;99378.69;;;-3.42;100.00
498;BME280;39559;48.630;9.162;2023-02-13T00:57:50;99377.69;;;-3.46;100.00
498;BME280;39559;48.630;9.162;2023-02-13T01:00:16;99375.66;;;-3.53;100.00
498;BME280;39559;48.630;9.162;2023-02-13T01:02:42;99372.81;;;-3.61;100.00
498;BME280;39559;48.630;9.162;2023-02-13T01:05:07;99380.88;;;-3.50;100.00
498;BME280;39559;48.630;9.162;2023-02-13T01:07:33;99375.41;;;-3.40;100.00
498;BME280;39559;48.630;9.162;2023-02-13T01:09:58;99368.81;;;-3.36;100.00
498;BME280;39559;48.630;9.162;2023-02-13T01:12:23;99371.34;;;-3.36;100.00
498;BME280;39559;48.630;9.162;2023-02-13T01:14:52;99375.50;;;-3.38;100.00
498;BME280;39559;48.630;9.162;2023-02-13T01:17:17;99373.50;;;-3.45;100.00
498;BME280;39559;48.630;9.162;2023-02-13T01:21:50;99362.38;;;-3.48;100.00
498;BME280;39559;48.630;9.162;2023-02-13T01:24:15;99361.66;;;-3.45;100.00
498;BME280;39559;48.630;9.162;2023-02-13T01:26:41;99363.75;;;-3.35;100.00
498;BME280;39559;48.630;9.162;2023-02-13T01:29:06;99357.22;;;-3.30;100.00
498;BME280;39559;48.630;9.162;2023-02-13T01:31:32;99360.03;;;-3.23;100.00
498;BME280;39559;48.630;9.162;2023-02-13T01:33:58;99362.06;;;-3.15;100.00
498;BME280;39559;48.630;9.162;2023-02-13T01:36:25;99368.44;;;-3.24;100.00
498;BME280;39559;48.630;9.162;2023-02-13T01:38:56;99362.97;;;-3.34;100.00
498;BME280;39559;48.630;9.162;2023-02-13T01:41:23;99360.09;;;-3.41;100.00
498;BME280;39559;48.630;9.162;2023-02-13T01:45:55;99362.84;;;-3.56;100.00
498;BME280;39559;48.630;9.162;2023-02-13T01:48:24;99352.34;;;-3.44;100.00
498;BME280;39559;48.630;9.162;2023-02-13T01:51:00;99351.94;;;-3.34;100.00
498;BME280;39559;48.630;9.162;2023-02-13T01:55:59;99357.75;;;-3.17;100.00
498;BME280;39559;48.630;9.162;2023-02-13T01:58:30;99351.03;;;-3.36;100.00
498;BME280;39559;48.630;9.162;2023-02-13T02:00:57;99352.28;;;-3.46;100.00
498;BME280;39559;48.630;9.162;2023-02-13T02:05:54;99356.50;;;-3.47;100.00
498;BME280;39559;48.630;9.162;2023-02-13T02:10:07;99342.66;;;-3.53;100.00
498;BME280;39559;48.630;9.162;2023-02-13T02:12:41;99347.34;;;-3.43;100.00
498;BME280;39559;48.630;9.162;2023-02-13T02:15:08;99343.25;;;-3.39;100.00
498;BME280;39559;48.630;9.162;2023-02-13T02:17:33;99341.03;;;-3.32;100.00
498;BME280;39559;48.630;9.162;2023-02-13T02:20:28;99352.28;;;-3.26;100.00
498;BME280;39559;48.630;9.162;2023-02-13T02:28:40;99350.47;;;-3.68;100.00
498;BME280;39559;48.630;9.162;2023-02-13T02:34:18;99351.69;;;-3.60;100.00
498;BME280;39559;48.630;9.162;2023-02-13T02:36:59;99354.34;;;-3.57;100.00
498;BME280;39559;48.630;9.162;2023-02-13T02:50:56;99361.56;;;-3.47;100.00
498;BME280;39559;48.630;9.162;2023-02-13T02:53:58;99355.16;;;-3.58;100.00
498;BME280;39559;48.630;9.162;2023-02-13T03:01:17;99354.09;;;-3.43;100.00
498;BME280;39559;48.630;9.162;2023-02-13T03:04:03;99350.09;;;-3.38;100.00
498;BME280;39559;48.630;9.162;2023-02-13T03:06:52;99356.88;;;-3.37;100.00
498;BME280;39559;48.630;9.162;2023-02-13T03:09:24;99350.19;;;-3.35;100.00
498;BME280;39559;48.630;9.162;2023-02-13T03:12:13;99360.34;;;-3.55;100.00
498;BME280;39559;48.630;9.162;2023-02-13T03:15:00;99359.44;;;-3.57;100.00
498;BME280;39559;48.630;9.162;2023-02-13T03:17:26;99364.25;;;-3.63;100.00
498;BME280;39559;48.630;9.162;2023-02-13T03:27:46;99358.94;;;-3.68;100.00
498;BME280;39559;48.630;9.162;2023-02-13T03:34:19;99364.72;;;-3.72;100.00
498;BME280;39559;48.630;9.162;2023-02-13T03:39:26;99368.78;;;-3.75;100.00
498;BME280;39559;48.630;9.162;2023-02-13T03:42:05;99374.06;;;-3.71;100.00
498;BME280;39559;48.630;9.162;2023-02-13T03:46:03;99368.06;;;-3.73;100.00
498;BME280;39559;48.630;9.162;2023-02-13T03:48:32;99375.06;;;-3.87;100.00
498;BME280;39559;48.630;9.162;2023-02-13T03:51:38;99375.47;;;-3.77;100.00
498;BME280;39559;48.630;9.162;2023-02-13T03:54:11;99375.72;;;-3.71;100.00
498;BME280;39559;48.630;9.162;2023-02-13T03:56:40;99381.53;;;-3.74;100.00
498;BME280;39559;48.630;9.162;2023-02-13T03:59:30;99380.47;;;-3.79;100.00
498;BME280;39559;48.630;9.162;2023-02-13T04:01:59;99375.72;;;-3.71;100.00
498;BME280;39559;48.630;9.162;2023-02-13T04:04:49;99378.56;;;-3.65;100.00
498;BME280;39559;48.630;9.162;2023-02-13T04:07:17;99379.69;;;-3.58;100.00
498;BME280;39559;48.630;9.162;2023-02-13T04:10:10;99382.81;;;-3.64;100.00
498;BME280;39559;48.630;9.162;2023-02-13T04:12:38;99386.16;;;-3.65;100.00
498;BME280;39559;48.630;9.162;2023-02-13T04:15:15;99379.06;;;-3.72;100.00
498;BME280;39559;48.630;9.162;2023-02-13T04:17:52;99385.16;;;-3.69;100.00
498;BME280;39559;48.630;9.162;2023-02-13T04:20:20;99394.97;;;-3.76;100.00
498;BME280;39559;48.630;9.162;2023-02-13T04:22:47;99386.34;;;-3.80;100.00
498;BME280;39559;48.630;9.162;2023-02-13T04:25:15;99386.94;;;-3.86;100.00
498;BME280;39559;48.630;9.162;2023-02-13T04:27:41;99387.63;;;-3.70;100.00
498;BME280;39559;48.630;9.162;2023-02-13T04:30:07;99387.44;;;-3.55;100.00
498;BME280;39559;48.630;9.162;2023-02-13T04:34:07;99394.97;;;-3.76;100.00
498;BME280;39559;48.630;9.162;2023-02-13T04:36:32;99391.56;;;-3.77;100.00
498;BME280;39559;48.630;9.162;2023-02-13T04:38:59;99388.50;;;-3.70;100.00
498;BME280;39559;48.630;9.162;2023-02-13T04:41:25;99389.09;;;-3.75;100.00
498;BME280;39559;48.630;9.162;2023-02-13T04:43:52;99385.00;;;-3.72;100.00
498;BME280;39559;48.630;9.162;2023-02-13T04:46:19;99381.94;;;-3.64;100.00
498;BME280;39559;48.630;9.162;2023-02-13T04:48:46;99387.09;;;-3.63;100.00
498;BME280;39559;48.630;9.162;2023-02-13T04:51:12;99390.94;;;-3.71;100.00
498;BME280;39559;48.630;9.162;2023-02-13T04:53:39;99392.69;;;-3.70;100.00
498;BME280;39559;48.630;9.162;2023-02-13T04:58:11;99390.66;;;-3.59;100.00
498;BME280;39559;48.630;9.162;2023-02-13T05:00:38;99393.50;;;-3.52;100.00
498;BME280;39559;48.630;9.162;2023-02-13T05:03:09;99400.31;;;-3.70;100.00
498;BME280;39559;48.630;9.162;2023-02-13T05:05:35;99391.50;;;-3.59;100.00
498;BME280;39559;48.630;9.162;2023-02-13T05:08:01;99400.88;;;-3.58;100.00
498;BME280;39559;48.630;9.162;2023-02-13T05:10:27;99397.13;;;-3.47;100.00
498;BME280;39559;48.630;9.162;2023-02-13T05:12:52;99401.97;;;-3.53;100.00
498;BME280;39559;48.630;9.162;2023-02-13T05:15:18;99400.09;;;-3.75;100.00
498;BME280;39559;48.630;9.162;2023-02-13T05:17:45;99399.53;;;-3.69;100.00
498;BME280;39559;48.630;9.162;2023-02-13T05:22:11;99386.19;;;-3.45;100.00
498;BME280;39559;48.630;9.162;2023-02-13T05:24:55;99393.81;;;-3.45;100.00
498;BME280;39559;48.630;9.162;2023-02-13T05:27:20;99392.13;;;-3.45;100.00
498;BME280;39559;48.630;9.162;2023-02-13T05:29:46;99404.00;;;-3.44;100.00
498;BME280;39559;48.630;9.162;2023-02-13T05:32:11;99400.91;;;-3.38;100.00
498;BME280;39559;48.630;9.162;2023-02-13T05:34:37;99398.88;;;-3.45;100.00
498;BME280;39559;48.630;9.162;2023-02-13T05:37:02;99402.22;;;-3.47;100.00
498;BME280;39559;48.630;9.162;2023-02-13T05:39:28;99392.91;;;-3.46;100.00
498;BME280;39559;48.630;9.162;2023-02-13T05:41:53;99392.59;;;-3.34;100.00
498;BME280;39559;48.630;9.162;2023-02-13T05:46:13;99389.63;;;-3.24;100.00
498;BME280;39559;48.630;9.162;2023-02-13T05:48:39;99387.28;;;-3.19;100.00
498;BME280;39559;48.630;9.162;2023-02-13T05:51:04;99393.59;;;-3.31;100.00
498;BME280;39559;48.630;9.162;2023-02-13T05:53:30;99391.84;;;-3.32;100.00
498;BME280;39559;48.630;9.162;2023-02-13T05:56:00;99395.06;;;-3.36;100.00
498;BME280;39559;48.630;9.162;2023-02-13T05:58:27;99399.59;;;-3.09;100.00
498;BME280;39559;48.630;9.162;2023-02-13T06:00:55;99392.84;;;-3.28;100.00
498;BME280;39559;48.630;9.162;2023-02-13T06:03:23;99399.28;;;-3.36;100.00
498;BME280;39559;48.630;9.162;2023-02-13T06:05:49;99396.38;;;-3.44;100.00
498;BME280;39559;48.630;9.162;2023-02-13T06:10:16;99395.72;;;-3.97;100.00
498;BME280;39559;48.630;9.162;2023-02-13T06:12:42;99400.56;;;-3.83;100.00
498;BME280;39559;48.630;9.162;2023-02-13T06:15:07;99398.31;;;-3.77;100.00
498;BME280;39559;48.630;9.162;2023-02-13T06:17:33;99390.50;;;-3.62;100.00
498;BME280;39559;48.630;9.162;2023-02-13T06:19:59;99396.06;;;-3.52;100.00
498;BME280;39559;48.630;9.162;2023-02-13T06:22:24;99397.88;;;-3.49;100.00
498;BME280;39559;48.630;9.162;2023-02-13T06:24:50;99395.25;;;-3.70;100.00
498;BME280;39559;48.630;9.162;2023-02-13T06:27:15;99404.31;;;-3.75;100.00
498;BME280;39559;48.630;9.162;2023-02-13T06:29:41;99403.59;;;-3.73;100.00
498;BME280;39559;48.630;9.162;2023-02-13T06:34:18;99401.22;;;-3.88;100.00
498;BME280;39559;48.630;9.162;2023-02-13T06:36:43;99404.75;;;-3.84;100.00
498;BME280;39559;48.630;9.162;2023-02-13T06:39:09;99411.50;;;-3.47;100.00
498;BME280;39559;48.630;9.162;2023-02-13T06:41:35;99412.00;;;-3.74;100.00
498;BME280;39559;48.630;9.162;2023-02-13T06:44:01;99412.75;;;-3.76;100.00
498;BME280;39559;48.630;9.162;2023-02-13T06:46:26;99410.59;;;-3.87;100.00
498;BME280;39559;48.630;9.162;2023-02-13T06:48:52;99416.69;;;-4.01;100.00
498;BME280;39559;48.630;9.162;2023-02-13T06:51:18;99412.78;;;-4.12;100.00
498;BME280;39559;48.630;9.162;2023-02-13T06:53:44;99409.31;;;-3.96;100.00
498;BME280;39559;48.630;9.162;2023-02-13T06:58:21;99407.94;;;-3.70;100.00
498;BME280;39559;48.630;9.162;2023-02-13T07:00:48;99418.03;;;-3.72;100.00
498;BME280;39559;48.630;9.162;2023-02-13T07:03:14;99412.22;;;-3.69;100.00
498;BME280;39559;48.630;9.162;2023-02-13T07:05:40;99416.72;;;-3.63;100.00
498;BME280;39559;48.630;9.162;2023-02-13T07:08:07;99418.19;;;-3.49;100.00
498;BME280;39559;48.630;9.162;2023-02-13T07:10:36;99419.59;;;-3.56;100.00
498;BME280;39559;48.630;9.162;2023-02-13T07:13:02;99417.31;;;-3.69;100.00
498;BME280;39559;48.630;9.162;2023-02-13T07:15:27;99429.59;;;-3.59;100.00
498;BME280;39559;48.630;9.162;2023-02-13T07:17:57;99420.97;;;-3.62;100.00
498;BME280;39559;48.630;9.162;2023-02-13T07:22:23;99423.69;;;-3.77;100.00
498;BME280;39559;48.630;9.162;2023-02-13T07:24:48;99424.19;;;-3.67;100.00
498;BME280;39559;48.630;9.162;2023-02-13T07:27:14;99422.56;;;-3.64;100.00
498;BME280;39559;48.630;9.162;2023-02-13T07:29:39;99429.84;;;-3.72;100.00
498;BME280;39559;48.630;9.162;2023-02-13T07:32:05;99426.53;;;-3.52;100.00
498;BME280;39559;48.630;9.162;2023-02-13T07:34:32;99425.84;;;-3.48;100.00
498;BME280;39559;48.630;9.162;2023-02-13T07:36:57;99422.53;;;-3.47;100.00
498;BME280;39559;48.630;9.162;2023-02-13T07:39:23;99431.22;;;-3.41;100.00
498;BME280;39559;48.630;9.162;2023-02-13T07:41:48;99429.88;;;-3.33;100.00
498;BME280;39559;48.630;9.162;2023-02-13T07:46:25;99429.94;;;-3.32;100.00
498;BME280;39559;48.630;9.162;2023-02-13T07:48:51;99437.66;;;-3.30;100.00
498;BME280;39559;48.630;9.162;2023-02-13T07:51:17;99434.78;;;-3.18;100.00
498;BME280;39559;48.630;9.162;2023-02-13T07:53:42;99437.50;;;-3.33;100.00
498;BME280;39559;48.630;9.162;2023-02-13T07:56:09;99443.09;;;-3.40;100.00
498;BME280;39559;48.630;9.162;2023-02-13T07:58:36;99436.75;;;-3.50;100.00
498;BME280;39559;48.630;9.162;2023-02-13T08:01:10;99447.19;;;-3.44;100.00
498;BME280;39559;48.630;9.162;2023-02-13T08:03:35;99436.88;;;-3.67;100.00
498;BME280;39559;48.630;9.162;2023-02-13T08:06:01;99440.66;;;-3.58;100.00
498;BME280;39559;48.630;9.162;2023-02-13T08:10:27;99440.16;;;-3.50;100.00
498;BME280;39559;48.630;9.162;2023-02-13T08:13:13;99440.72;;;-3.37;100.00
498;BME280;39559;48.630;9.162;2023-02-13T08:15:39;99441.94;;;-3.29;100.00
498;BME280;39559;48.630;9.162;2023-02-13T08:18:05;99440.97;;;-3.12;100.00
498;BME280;39559;48.630;9.162;2023-02-13T08:20:30;99433.13;;;-2.97;100.00
498;BME280;39559;48.630;9.162;2023-02-13T08:23:08;99437.28;;;-2.99;100.00
498;BME280;39559;48.630;9.162;2023-02-13T08:25:33;99432.44;;;-2.73;100.00
498;BME280;39559;48.630;9.162;2023-02-13T08:28:00;99431.16;;;-2.63;100.00
498;BME280;39559;48.630;9.162;2023-02-13T08:30:26;99430.06;;;-2.49;100.00
498;BME280;39559;48.630;9.162;2023-02-13T08:34:30;99435.31;;;-2.65;100.00
498;BME280;39559;48.630;9.162;2023-02-13T08:36:55;99433.16;;;-2.56;100.00
498;BME280;39559;48.630;9.162;2023-02-13T08:39:21;99428.25;;;-2.30;100.00
498;BME280;39559;48.630;9.162;2023-02-13T08:41:46;99419.28;;;-2.00;100.00
498;BME280;39559;48.630;9.162;2023-02-13T08:44:12;99417.13;;;-1.66;100.00
498;BME280;39559;48.630;9.162;2023-02-13T08:46:37;99414.06;;;-1.58;100.00
498;BME280;39559;48.630;9.162;2023-02-13T08:49:03;99415.75;;;-1.34;100.00
498;BME280;39559;48.630;9.162;2023-02-13T08:51:28;99411.22;;;-0.94;100.00
498;BME280;39559;48.630;9.162;2023-02-13T08:53:54;99414.56;;;-0.95;100.00
498;BME280;39559;48.630;9.162;2023-02-13T08:58:32;99418.81;;;-0.70;100.00
498;BME280;39559;48.630;9.162;2023-02-13T09:00:58;99405.38;;;-0.65;100.00
498;BME280;39559;48.630;9.162;2023-02-13T09:03:24;99410.53;;;-0.37;100.00
498;BME280;39559;48.630;9.162;2023-02-13T09:05:49;99404.06;;;-0.26;100.00
498;BME280;39559;48.630;9.162;2023-02-13T09:08:15;99404.16;;;0.04;100.00
498;BME280;39559;48.630;9.162;2023-02-13T09:10:41;99401.38;;;0.25;100.00
498;BME280;39559;48.630;9.162;2023-02-13T09:13:09;99404.44;;;0.13;100.00
498;BME280;39559;48.630;9.162;2023-02-13T09:15:39;99396.25;;;0.54;100.00
498;BME280;39559;48.630;9.162;2023-02-13T09:18:05;99390.41;;;0.90;100.00
498;BME280;39559;48.630;9.162;2023-02-13T09:22:34;99395.63;;;0.93;100.00
498;BME280;39559;48.630;9.162;2023-02-13T09:24:59;99393.00;;;0.91;100.00
498;BME280;39559;48.630;9.162;2023-02-13T09:27:29;99391.81;;;1.44;100.00
498;BME280;39559;48.630;9.162;2023-02-13T09:29:54;99388.16;;;1.70;100.00
498;BME280;39559;48.630;9.162;2023-02-13T09:32:20;99396.72;;;1.72;100.00
498;BME280;39559;48.630;9.162;2023-02-13T09:34:45;99400.91;;;2.04;100.00
498;BME280;39559;48.630;9.162;2023-02-13T09:37:11;99392.50;;;2.52;100.00
498;BME280;39559;48.630;9.162;2023-02-13T09:39:37;99392.56;;;2.55;100.00
498;BME280;39559;48.630;9.162;2023-02-13T09:46:39;99389.16;;;3.51;100.00
498;BME280;39559;48.630;9.162;2023-02-13T09:49:27;99387.50;;;4.11;100.00
498;BME280;39559;48.630;9.162;2023-02-13T09:51:56;99391.34;;;4.39;100.00
498;BME280;39559;48.630;9.162;2023-02-13T09:54:22;99403.69;;;4.69;100.00
498;BME280;39559;48.630;9.162;2023-02-13T09:57:04;99385.38;;;5.19;100.00
498;BME280;39559;48.630;9.162;2023-02-13T10:00:11;99395.47;;;5.96;100.00
498;BME280;39559;48.630;9.162;2023-02-13T10:06:07;99388.19;;;6.96;100.00
498;BME280;39559;48.630;9.162;2023-02-13T10:16:26;99388.25;;;7.25;100.00
498;BME280;39559;48.630;9.162;2023-02-13T10:19:15;99391.72;;;7.34;100.00
498;BME280;39559;48.630;9.162;2023-02-13T10:21:51;99392.59;;;7.29;99.89
498;BME280;39559;48.630;9.162;2023-02-13T10:27:31;99389.75;;;6.46;100.00
498;BME280;39559;48.630;9.162;2023-02-13T10:34:43;99402.94;;;5.61;100.00
498;BME280;39559;48.630;9.162;2023-02-13T10:37:14;99392.53;;;5.50;100.00
498;BME280;39559;48.630;9.162;2023-02-13T10:39:43;99390.53;;;5.19;100.00
498;BME280;39559;48.630;9.162;2023-02-13T10:55:20;99371.28;;;5.83;100.00
498;BME280;39559;48.630;9.162;2023-02-13T10:59:04;99368.31;;;6.69;100.00
498;BME280;39559;48.630;9.162;2023-02-13T11:04:11;99364.13;;;7.08;93.47
498;BME280;39559;48.630;9.162;2023-02-13T11:06:42;99356.38;;;7.74;89.92
498;BME280;39559;48.630;9.162;2023-02-13T11:09:10;99352.06;;;7.75;88.27
498;BME280;39559;48.630;9.162;2023-02-13T11:11:40;99352.91;;;7.94;85.43
498;BME280;39559;48.630;9.162;2023-02-13T11:14:15;99344.31;;;7.68;82.26
498;BME280;39559;48.630;9.162;2023-02-13T11:17:02;99349.50;;;7.56;81.81
498;BME280;39559;48.630;9.162;2023-02-13T11:19:36;99346.03;;;7.16;81.66
498;BME280;39559;48.630;9.162;2023-02-13T11:22:44;99344.09;;;8.59;86.29
498;BME280;39559;48.630;9.162;2023-02-13T11:25:20;99334.53;;;8.74;84.44
498;BME280;39559;48.630;9.162;2023-02-13T11:27:48;99343.72;;;9.24;75.92
498;BME280;39559;48.630;9.162;2023-02-13T11:30:33;99342.06;;;9.12;75.88
498;BME280;39559;48.630;9.162;2023-02-13T11:33:23;99334.06;;;9.46;72.82
498;BME280;39559;48.630;9.162;2023-02-13T11:36:10;99336.13;;;10.00;69.60
498;BME280;39559;48.630;9.162;2023-02-13T11:38:38;99328.69;;;11.12;69.93
498;BME280;39559;48.630;9.162;2023-02-13T11:41:11;99332.91;;;11.19;63.92
498;BME280;39559;48.630;9.162;2023-02-13T11:43:46;99326.09;;;11.10;64.10
498;BME280;39559;48.630;9.162;2023-02-13T11:46:49;99320.97;;;12.10;65.22
498;BME280;39559;48.630;9.162;2023-02-13T11:51:46;99323.69;;;12.46;56.96
498;BME280;39559;48.630;9.162;2023-02-13T11:54:44;99319.78;;;12.68;58.46
498;BME280;39559;48.630;9.162;2023-02-13T11:57:29;99319.97;;;12.59;58.55
498;BME280;39559;48.630;9.162;2023-02-13T11:59:56;99316.88;;;13.20;54.48
498;BME280;39559;48.630;9.162;2023-02-13T12:02:26;99315.66;;;13.69;54.32
498;BME280;39559;48.630;9.162;2023-02-13T12:05:14;99309.31;;;14.42;51.71
498;BME280;39559;48.630;9.162;2023-02-13T12:07:40;99311.31;;;13.70;51.35
498;BME280;39559;48.630;9.162;2023-02-13T12:10:48;99307.91;;;12.94;55.41
498;BME280;39559;48.630;9.162;2023-02-13T12:13:20;99306.72;;;14.11;53.74
498;BME280;39559;48.630;9.162;2023-02-13T12:15:58;99299.38;;;14.25;50.41
498;BME280;39559;48.630;9.162;2023-02-13T12:18:31;99314.50;;;13.09;52.16
498;BME280;39559;48.630;9.162;2023-02-13T12:21:12;99311.91;;;12.70;54.21
498;BME280;39559;48.630;9.162;2023-02-13T12:24:14;99306.56;;;11.90;55.83
498;BME280;39559;48.630;9.162;2023-02-13T12:26:56;99304.09;;;11.83;57.62
498;BME280;39559;48.630;9.162;2023-02-13T12:35:07;99307.03;;;11.11;58.68
498;BME280;39559;48.630;9.162;2023-02-13T12:38:11;99305.59;;;10.92;58.27
498;BME280;39559;48.630;9.162;2023-02-13T12:49:12;99295.13;;;10.31;62.15
498;BME280;39559;48.630;9.162;2023-02-13T12:52:07;99289.22;;;10.84;60.74
498;BME280;39559;48.630;9.162;2023-02-13T13:04:22;99288.53;;;10.03;63.76
498;BME280;39559;48.630;9.162;2023-02-13T13:07:16;99289.09;;;9.46;65.63
498;BME280;39559;48.630;9.162;2023-02-13T13:13:25;99284.13;;;9.21;66.08
498;BME280;39559;48.630;9.162;2023-02-13T13:22:58;99280.63;;;9.23;70.35
498;BME280;39559;48.630;9.162;2023-02-13T13:25:34;99270.34;;;10.03;69.10
498;BME280;39559;48.630;9.162;2023-02-13T13:28:13;99271.22;;;10.02;67.81
498;BME280;39559;48.630;9.162;2023-02-13T13:30:41;99276.72;;;9.72;68.60
498;BME280;39559;48.630;9.162;2023-02-13T13:33:17;99274.97;;;9.76;67.38
498;BME280;39559;48.630;9.162;2023-02-13T13:35:59;99274.13;;;9.72;67.01
498;BME280;39559;48.630;9.162;2023-02-13T13:41:14;99270.50;;;9.87;67.83
498;BME280;39559;48.630;9.162;2023-02-13T13:47:03;99268.25;;;10.35;66.05
498;BME280;39559;48.630;9.162;2023-02-13T13:54:45;99262.19;;;10.35;66.01
498;BME280;39559;48.630;9.162;2023-02-13T13:57:17;99256.63;;;10.63;65.13
498;BME280;39559;48.630;9.162;2023-02-13T14:05:22;99264.56;;;11.09;64.11
498;BME280;39559;48.630;9.162;2023-02-13T14:08:00;99266.66;;;11.40;63.90
498;BME280;39559;48.630;9.162;2023-02-13T14:13:38;99262.97;;;10.42;65.84
498;BME280;39559;48.630;9.162;2023-02-13T14:16:09;99267.63;;;10.79;63.61
498;BME280;39559;48.630;9.162;2023-02-13T14:18:36;99268.47;;;10.15;65.56
498;BME280;39559;48.630;9.162;2023-02-13T14:21:03;99264.03;;;9.46;66.51
498;BME280;39559;48.630;9.162;2023-02-13T14:23:43;99268.44;;;9.36;69.37
498;BME280;39559;48.630;9.162;2023-02-13T14:31:30;99260.75;;;9.26;68.84
498;BME280;39559;48.630;9.162;2023-02-13T14:34:56;99258.44;;;8.92;71.02
498;BME280;39559;48.630;9.162;2023-02-13T14:37:27;99261.09;;;8.82;71.08
498;BME280;39559;48.630;9.162;2023-02-13T14:43:08;99267.09;;;8.88;71.55
498;BME280;39559;48.630;9.162;2023-02-13T14:45:32;99271.47;;;8.76;72.73
498;BME280;39559;48.630;9.162;2023-02-13T14:48:10;99262.84;;;8.76;72.75
498;BME280;39559;48.630;9.162;2023-02-13T14:50:46;99268.16;;;8.60;73.35
498;BME280;39559;48.630;9.162;2023-02-13T14:53:19;99262.91;;;8.68;73.18
498;BME280;39559;48.630;9.162;2023-02-13T14:55:53;99262.09;;;8.61;74.34
498;BME280;39559;48.630;9.162;2023-02-13T14:59:05;99258.66;;;8.59;74.21
498;BME280;39559;48.630;9.162;2023-02-13T15:01:41;99262.19;;;8.43;75.95
498;BME280;39559;48.630;9.162;2023-02-13T15:04:16;99263.06;;;8.40;76.52
498;BME280;39559;48.630;9.162;2023-02-13T15:06:45;99263.97;;;8.25;77.75
498;BME280;39559;48.630;9.162;2023-02-13T15:11:52;99259.81;;;7.78;81.87
498;BME280;39559;48.630;9.162;2023-02-13T15:17:13;99265.91;;;7.40;87.34
498;BME280;39559;48.630;9.162;2023-02-13T15:19:46;99261.66;;;7.22;87.30
498;BME280;39559;48.630;9.162;2023-02-13T15:22:46;99261.63;;;7.38;88.29
498;BME280;39559;48.630;9.162;2023-02-13T15:25:44;99251.28;;;7.36;89.15
498;BME280;39559;48.630;9.162;2023-02-13T15:28:19;99260.75;;;7.31;90.02
498;BME280;39559;48.630;9.162;2023-02-13T15:31:20;99253.03;;;7.29;88.76
498;BME280;39559;48.630;9.162;2023-02-13T15:33:48;99251.31;;;7.07;91.82
498;BME280;39559;48.630;9.162;2023-02-13T15:36:22;99250.47;;;7.09;90.74
498;BME280;39559;48.630;9.162;2023-02-13T15:39:00;99248.72;;;7.08;90.67
498;BME280;39559;48.630;9.162;2023-02-13T15:41:37;99251.31;;;6.71;92.28
498;BME280;39559;48.630;9.162;2023-02-13T15:44:04;99256.47;;;6.71;92.59
498;BME280;39559;48.630;9.162;2023-02-13T15:46:47;99257.28;;;6.61;94.28
498;BME280;39559;48.630;9.162;2023-02-13T15:49:16;99251.25;;;6.58;94.28
498;BME280;39559;48.630;9.162;2023-02-13T15:51:43;99246.09;;;6.59;94.03
498;BME280;39559;48.630;9.162;2023-02-13T15:54:31;99248.69;;;6.58;94.62
498;BME280;39559;48.630;9.162;2023-02-13T15:57:05;99250.34;;;6.40;95.35
498;BME280;39559;48.630;9.162;2023-02-13T15:59:34;99249.47;;;6.32;96.47
498;BME280;39559;48.630;9.162;2023-02-13T16:02:01;99259.75;;;6.13;96.59
498;BME280;39559;48.630;9.162;2023-02-13T16:04:27;99254.47;;;5.95;98.67
498;BME280;39559;48.630;9.162;2023-02-13T16:06:55;99255.38;;;5.95;98.85
498;BME280;39559;48.630;9.162;2023-02-13T16:10:44;99253.66;;;5.98;99.09
498;BME280;39559;48.630;9.162;2023-02-13T16:13:15;99252.66;;;5.80;99.65
498;BME280;39559;48.630;9.162;2023-02-13T16:15:43;99257.78;;;5.71;99.85
498;BME280;39559;48.630;9.162;2023-02-13T16:18:18;99259.41;;;5.52;100.00
498;BME280;39559;48.630;9.162;2023-02-13T16:20:45;99260.09;;;5.26;100.00
498;BME280;39559;48.630;9.162;2023-02-13T16:23:16;99259.13;;;5.12;100.00
498;BME280;39559;48.630;9.162;2023-02-13T16:25:45;99258.03;;;4.82;100.00
498;BME280;39559;48.630;9.162;2023-02-13T16:30:45;99264.09;;;4.08;100.00
498;BME280;39559;48.630;9.162;2023-02-13T16:34:46;99259.91;;;3.52;100.00
498;BME280;39559;48.630;9.162;2023-02-13T16:37:46;99269.09;;;3.36;100.00
498;BME280;39559;48.630;9.162;2023-02-13T16:40:41;99265.25;;;3.07;100.00
498;BME280;39559;48.630;9.162;2023-02-13T16:54:13;99271.25;;;2.14;100.00
498;BME280;39559;48.630;9.162;2023-02-13T16:58:42;99275.19;;;1.98;100.00
498;BME280;39559;48.630;9.162;2023-02-13T17:01:13;99269.06;;;1.89;100.00
498;BME280;39559;48.630;9.162;2023-02-13T17:03:39;99281.53;;;1.74;100.00
498;BME280;39559;48.630;9.162;2023-02-13T17:06:05;99277.78;;;1.60;100.00
498;BME280;39559;48.630;9.162;2023-02-13T17:08:30;99285.81;;;1.37;100.00
498;BME280;39559;48.630;9.162;2023-02-13T17:11:05;99283.91;;;1.28;100.00
498;BME280;39559;48.630;9.162;2023-02-13T17:13:32;99284.50;;;1.18;100.00